sensor_id;sensor_type;location;lat;lon;timestamp;pressure;altitude;pressure_sealevel;temperature;humidity
42811;BME280;28457;55.680;37.656;2023-03-14T00:01:34;99739.09;;;-2.62;64.50
42811;BME280;28457;55.680;37.656;2023-03-14T00:04:03;99726.75;;;-2.62;65.22
42811;BME280;28457;55.680;37.656;2023-03-14T00:06:31;99723.56;;;-2.67;63.92
42811;BME280;28457;55.680;37.656;2023-03-14T00:08:59;99713.16;;;-2.69;64.93
42811;BME280;28457;55.680;37.656;2023-03-14T00:11:27;99708.84;;;-2.70;63.97
42811;BME280;28457;55.680;37.656;2023-03-14T00:13:56;99703.66;;;-2.71;64.27
42811;BME280;28457;55.680;37.656;2023-03-14T00:16:26;99692.91;;;-2.68;64.30
42811;BME280;28457;55.680;37.656;2023-03-14T00:18:54;99689.22;;;-2.66;65.04
42811;BME280;28457;55.680;37.656;2023-03-14T00:21:22;99680.69;;;-2.69;64.25
42811;BME280;28457;55.680;37.656;2023-03-14T00:23:50;99669.09;;;-2.67;64.71
42811;BME280;28457;55.680;37.656;2023-03-14T00:26:19;99664.53;;;-2.65;63.98
42811;BME280;28457;55.680;37.656;2023-03-14T00:28:50;99653.75;;;-2.61;64.62
42811;BME280;28457;55.680;37.656;2023-03-14T00:31:19;99657.56;;;-2.66;64.35
42811;BME280;28457;55.680;37.656;2023-03-14T00:33:50;99647.75;;;-2.63;64.67
42811;BME280;28457;55.680;37.656;2023-03-14T00:36:19;99647.03;;;-2.66;64.64
42811;BME280;28457;55.680;37.656;2023-03-14T00:38:48;99643.88;;;-2.71;63.75
42811;BME280;28457;55.680;37.656;2023-03-14T00:41:17;99648.00;;;-2.67;64.29
42811;BME280;28457;55.680;37.656;2023-03-14T00:43:46;99653.75;;;-2.61;64.55
42811;BME280;28457;55.680;37.656;2023-03-14T00:46:14;99648.25;;;-2.58;64.91
42811;BME280;28457;55.680;37.656;2023-03-14T00:48:43;99642.03;;;-2.57;65.80
42811;BME280;28457;55.680;37.656;2023-03-14T00:51:13;99645.00;;;-2.62;66.32
42811;BME280;28457;55.680;37.656;2023-03-14T00:53:43;99648.47;;;-2.61;66.84
42811;BME280;28457;55.680;37.656;2023-03-14T00:56:12;99644.38;;;-2.66;67.73
42811;BME280;28457;55.680;37.656;2023-03-14T00:58:40;99638.91;;;-2.62;67.86
42811;BME280;28457;55.680;37.656;2023-03-14T01:01:10;99627.00;;;-2.68;67.94
42811;BME280;28457;55.680;37.656;2023-03-14T01:03:40;99628.78;;;-2.69;68.52
42811;BME280;28457;55.680;37.656;2023-03-14T01:06:09;99619.94;;;-2.68;68.76
42811;BME280;28457;55.680;37.656;2023-03-14T01:08:38;99621.63;;;-2.67;69.39
42811;BME280;28457;55.680;37.656;2023-03-14T01:11:07;99637.44;;;-2.67;69.49
42811;BME280;28457;55.680;37.656;2023-03-14T01:13:36;99616.63;;;-2.58;70.01
42811;BME280;28457;55.680;37.656;2023-03-14T01:16:06;99622.94;;;-2.61;70.59
42811;BME280;28457;55.680;37.656;2023-03-14T01:18:36;99613.25;;;-2.60;70.74
42811;BME280;28457;55.680;37.656;2023-03-14T01:21:09;99622.00;;;-2.60;72.13
42811;BME280;28457;55.680;37.656;2023-03-14T01:23:39;99612.06;;;-2.56;73.88
42811;BME280;28457;55.680;37.656;2023-03-14T01:26:08;99603.91;;;-2.53;74.42
42811;BME280;28457;55.680;37.656;2023-03-14T01:28:37;99590.72;;;-2.53;75.01
42811;BME280;28457;55.680;37.656;2023-03-14T01:31:06;99593.59;;;-2.56;76.26
42811;BME280;28457;55.680;37.656;2023-03-14T01:33:35;99565.69;;;-2.59;78.14
42811;BME280;28457;55.680;37.656;2023-03-14T01:36:03;99560.41;;;-2.59;78.34
42811;BME280;28457;55.680;37.656;2023-03-14T01:38:33;99538.72;;;-2.62;79.63
42811;BME280;28457;55.680;37.656;2023-03-14T01:41:03;99551.66;;;-2.59;79.58
42811;BME280;28457;55.680;37.656;2023-03-14T01:43:32;99537.28;;;-2.55;80.96
42811;BME280;28457;55.680;37.656;2023-03-14T01:48:54;99548.56;;;-2.53;81.52
42811;BME280;28457;55.680;37.656;2023-03-14T01:51:25;99539.94;;;-2.55;82.07
42811;BME280;28457;55.680;37.656;2023-03-14T01:53:55;99515.25;;;-2.54;83.13
42811;BME280;28457;55.680;37.656;2023-03-14T01:56:27;99512.47;;;-2.53;84.08
42811;BME280;28457;55.680;37.656;2023-03-14T01:58:57;99516.81;;;-2.52;83.96
42811;BME280;28457;55.680;37.656;2023-03-14T02:01:26;99510.69;;;-2.52;84.96
42811;BME280;28457;55.680;37.656;2023-03-14T02:03:55;99500.84;;;-2.50;84.36
42811;BME280;28457;55.680;37.656;2023-03-14T02:06:26;99489.59;;;-2.52;86.04
42811;BME280;28457;55.680;37.656;2023-03-14T02:08:59;99481.44;;;-2.49;86.58
42811;BME280;28457;55.680;37.656;2023-03-14T02:11:32;99492.59;;;-2.46;85.81
42811;BME280;28457;55.680;37.656;2023-03-14T02:14:04;99494.06;;;-2.42;85.62
42811;BME280;28457;55.680;37.656;2023-03-14T02:16:51;99492.72;;;-2.36;86.65
42811;BME280;28457;55.680;37.656;2023-03-14T02:19:28;99481.94;;;-2.33;86.50
42811;BME280;28457;55.680;37.656;2023-03-14T02:22:21;99466.13;;;-2.33;86.44
42811;BME280;28457;55.680;37.656;2023-03-14T02:24:59;99463.47;;;-2.33;86.73
42811;BME280;28457;55.680;37.656;2023-03-14T02:27:31;99472.22;;;-2.32;87.16
42811;BME280;28457;55.680;37.656;2023-03-14T02:30:00;99456.31;;;-2.31;88.02
42811;BME280;28457;55.680;37.656;2023-03-14T02:32:29;99455.44;;;-2.31;89.12
42811;BME280;28457;55.680;37.656;2023-03-14T02:34:58;99447.41;;;-2.30;89.45
42811;BME280;28457;55.680;37.656;2023-03-14T02:37:29;99427.16;;;-2.29;89.13
42811;BME280;28457;55.680;37.656;2023-03-14T02:40:02;99423.06;;;-2.33;91.07
42811;BME280;28457;55.680;37.656;2023-03-14T02:42:34;99408.69;;;-2.29;91.55
42811;BME280;28457;55.680;37.656;2023-03-14T02:47:48;99408.09;;;-2.33;92.95
42811;BME280;28457;55.680;37.656;2023-03-14T02:50:17;99409.75;;;-2.32;93.29
42811;BME280;28457;55.680;37.656;2023-03-14T02:52:48;99400.78;;;-2.29;92.52
42811;BME280;28457;55.680;37.656;2023-03-14T02:55:19;99392.25;;;-2.33;92.96
42811;BME280;28457;55.680;37.656;2023-03-14T02:57:51;99395.63;;;-2.31;93.98
42811;BME280;28457;55.680;37.656;2023-03-14T03:00:19;99406.06;;;-2.29;93.82
42811;BME280;28457;55.680;37.656;2023-03-14T03:02:47;99398.00;;;-2.28;94.54
42811;BME280;28457;55.680;37.656;2023-03-14T03:05:15;99396.22;;;-2.27;94.42
42811;BME280;28457;55.680;37.656;2023-03-14T03:07:43;99404.97;;;-2.27;93.64
42811;BME280;28457;55.680;37.656;2023-03-14T03:10:12;99390.69;;;-2.24;94.45
42811;BME280;28457;55.680;37.656;2023-03-14T03:12:40;99400.16;;;-2.22;93.55
42811;BME280;28457;55.680;37.656;2023-03-14T03:15:11;99398.25;;;-2.20;93.86
42811;BME280;28457;55.680;37.656;2023-03-14T03:17:39;99384.81;;;-2.17;94.30
42811;BME280;28457;55.680;37.656;2023-03-14T03:20:08;99388.16;;;-2.14;94.81
42811;BME280;28457;55.680;37.656;2023-03-14T03:22:38;99378.19;;;-2.11;95.10
42811;BME280;28457;55.680;37.656;2023-03-14T03:25:09;99374.34;;;-2.07;95.92
42811;BME280;28457;55.680;37.656;2023-03-14T03:27:38;99344.16;;;-2.03;94.76
42811;BME280;28457;55.680;37.656;2023-03-14T03:30:07;99347.38;;;-1.99;94.52
42811;BME280;28457;55.680;37.656;2023-03-14T03:32:37;99349.75;;;-1.96;94.57
42811;BME280;28457;55.680;37.656;2023-03-14T03:35:05;99333.91;;;-1.96;94.72
42811;BME280;28457;55.680;37.656;2023-03-14T03:37:37;99326.72;;;-1.94;95.96
42811;BME280;28457;55.680;37.656;2023-03-14T03:40:06;99322.03;;;-1.90;96.28
42811;BME280;28457;55.680;37.656;2023-03-14T03:42:35;99304.84;;;-1.85;96.59
42811;BME280;28457;55.680;37.656;2023-03-14T03:45:07;99321.13;;;-1.80;94.81
42811;BME280;28457;55.680;37.656;2023-03-14T03:47:43;99324.13;;;-1.73;95.15
42811;BME280;28457;55.680;37.656;2023-03-14T03:50:11;99303.44;;;-1.68;95.59
42811;BME280;28457;55.680;37.656;2023-03-14T03:52:40;99309.06;;;-1.61;96.33
42811;BME280;28457;55.680;37.656;2023-03-14T03:55:08;99299.06;;;-1.58;95.42
42811;BME280;28457;55.680;37.656;2023-03-14T03:57:36;99327.16;;;-1.57;96.14
42811;BME280;28457;55.680;37.656;2023-03-14T04:00:05;99301.06;;;-1.50;95.58
42811;BME280;28457;55.680;37.656;2023-03-14T04:02:41;99305.97;;;-1.46;95.73
42811;BME280;28457;55.680;37.656;2023-03-14T04:05:15;99331.16;;;-1.41;95.46
42811;BME280;28457;55.680;37.656;2023-03-14T04:07:53;99315.91;;;-1.38;95.55
42811;BME280;28457;55.680;37.656;2023-03-14T04:10:24;99313.69;;;-1.33;96.16
42811;BME280;28457;55.680;37.656;2023-03-14T04:13:08;99296.63;;;-1.29;96.03
42811;BME280;28457;55.680;37.656;2023-03-14T04:15:38;99291.78;;;-1.24;96.59
42811;BME280;28457;55.680;37.656;2023-03-14T04:18:18;99306.69;;;-1.23;96.50
42811;BME280;28457;55.680;37.656;2023-03-14T04:20:51;99278.03;;;-1.17;95.83
42811;BME280;28457;55.680;37.656;2023-03-14T04:23:23;99289.34;;;-1.15;95.72
42811;BME280;28457;55.680;37.656;2023-03-14T04:25:51;99300.63;;;-1.13;96.38
42811;BME280;28457;55.680;37.656;2023-03-14T04:28:21;99288.66;;;-1.08;95.90
42811;BME280;28457;55.680;37.656;2023-03-14T04:30:49;99283.00;;;-1.03;96.04
42811;BME280;28457;55.680;37.656;2023-03-14T04:33:21;99253.78;;;-1.02;95.79
42811;BME280;28457;55.680;37.656;2023-03-14T04:35:55;99279.81;;;-0.97;96.56
42811;BME280;28457;55.680;37.656;2023-03-14T04:38:24;99269.72;;;-0.92;96.38
42811;BME280;28457;55.680;37.656;2023-03-14T04:40:52;99276.41;;;-0.88;96.46
42811;BME280;28457;55.680;37.656;2023-03-14T04:43:24;99267.78;;;-0.80;95.98
42811;BME280;28457;55.680;37.656;2023-03-14T04:45:59;99256.94;;;-0.77;96.16
42811;BME280;28457;55.680;37.656;2023-03-14T04:48:28;99260.84;;;-0.72;96.56
42811;BME280;28457;55.680;37.656;2023-03-14T04:50:59;99249.06;;;-0.67;96.29
42811;BME280;28457;55.680;37.656;2023-03-14T04:53:30;99232.22;;;-0.66;96.59
42811;BME280;28457;55.680;37.656;2023-03-14T04:56:00;99244.91;;;-0.60;97.19
42811;BME280;28457;55.680;37.656;2023-03-14T04:58:35;99269.38;;;-0.58;96.94
42811;BME280;28457;55.680;37.656;2023-03-14T05:01:05;99231.13;;;-0.54;96.68
42811;BME280;28457;55.680;37.656;2023-03-14T05:03:46;99233.63;;;-0.53;96.83
42811;BME280;28457;55.680;37.656;2023-03-14T05:06:51;99213.44;;;-0.44;97.23
42811;BME280;28457;55.680;37.656;2023-03-14T05:09:38;99259.97;;;-0.41;96.66
42811;BME280;28457;55.680;37.656;2023-03-14T05:12:12;99210.25;;;-0.38;97.22
42811;BME280;28457;55.680;37.656;2023-03-14T05:14:54;99187.84;;;-0.34;97.34
42811;BME280;28457;55.680;37.656;2023-03-14T05:17:41;99215.69;;;-0.30;96.81
42811;BME280;28457;55.680;37.656;2023-03-14T05:20:27;99197.72;;;-0.26;97.15
42811;BME280;28457;55.680;37.656;2023-03-14T05:23:15;99188.69;;;-0.23;96.73
42811;BME280;28457;55.680;37.656;2023-03-14T05:26:01;99171.41;;;-0.18;97.01
42811;BME280;28457;55.680;37.656;2023-03-14T05:28:42;99192.28;;;-0.15;96.66
42811;BME280;28457;55.680;37.656;2023-03-14T05:31:28;99201.50;;;-0.09;95.95
42811;BME280;28457;55.680;37.656;2023-03-14T05:34:16;99192.84;;;-0.02;95.81
42811;BME280;28457;55.680;37.656;2023-03-14T05:36:55;99209.03;;;0.05;95.21
42811;BME280;28457;55.680;37.656;2023-03-14T05:39:38;99208.47;;;0.11;94.82
42811;BME280;28457;55.680;37.656;2023-03-14T05:42:25;99191.03;;;0.18;93.89
42811;BME280;28457;55.680;37.656;2023-03-14T05:45:16;99207.03;;;0.27;93.40
42811;BME280;28457;55.680;37.656;2023-03-14T05:48:10;99216.94;;;0.34;93.46
42811;BME280;28457;55.680;37.656;2023-03-14T05:50:46;99196.16;;;0.39;93.25
42811;BME280;28457;55.680;37.656;2023-03-14T05:53:27;99203.50;;;0.45;91.72
42811;BME280;28457;55.680;37.656;2023-03-14T05:56:15;99205.44;;;0.53;91.91
42811;BME280;28457;55.680;37.656;2023-03-14T05:58:56;99211.16;;;0.58;90.54
42811;BME280;28457;55.680;37.656;2023-03-14T06:01:47;99214.91;;;0.65;90.93
42811;BME280;28457;55.680;37.656;2023-03-14T06:04:19;99216.13;;;0.71;89.69
42811;BME280;28457;55.680;37.656;2023-03-14T06:06:53;99228.53;;;0.80;89.39
42811;BME280;28457;55.680;37.656;2023-03-14T06:09:21;99199.63;;;0.87;88.76
42811;BME280;28457;55.680;37.656;2023-03-14T06:11:54;99187.75;;;0.91;88.11
42811;BME280;28457;55.680;37.656;2023-03-14T06:14:29;99199.72;;;0.95;87.33
42811;BME280;28457;55.680;37.656;2023-03-14T06:16:58;99216.88;;;1.01;87.37
42811;BME280;28457;55.680;37.656;2023-03-14T06:19:30;99191.56;;;1.06;87.64
42811;BME280;28457;55.680;37.656;2023-03-14T06:21:58;99176.19;;;1.10;86.54
42811;BME280;28457;55.680;37.656;2023-03-14T06:24:27;99160.69;;;1.15;85.97
42811;BME280;28457;55.680;37.656;2023-03-14T06:26:57;99181.47;;;1.19;85.29
42811;BME280;28457;55.680;37.656;2023-03-14T06:29:25;99189.13;;;1.23;84.79
42811;BME280;28457;55.680;37.656;2023-03-14T06:31:53;99182.25;;;1.30;85.51
42811;BME280;28457;55.680;37.656;2023-03-14T06:34:21;99184.31;;;1.36;85.05
42811;BME280;28457;55.680;37.656;2023-03-14T06:36:49;99189.16;;;1.40;84.05
42811;BME280;28457;55.680;37.656;2023-03-14T06:39:17;99195.16;;;1.42;84.24
42811;BME280;28457;55.680;37.656;2023-03-14T06:41:50;99161.88;;;1.48;84.40
42811;BME280;28457;55.680;37.656;2023-03-14T06:44:20;99201.38;;;1.51;83.49
42811;BME280;28457;55.680;37.656;2023-03-14T06:46:48;99178.03;;;1.55;84.22
42811;BME280;28457;55.680;37.656;2023-03-14T06:49:17;99156.50;;;1.58;82.96
42811;BME280;28457;55.680;37.656;2023-03-14T06:51:46;99156.34;;;1.59;82.31
42811;BME280;28457;55.680;37.656;2023-03-14T06:54:14;99148.25;;;1.61;82.04
42811;BME280;28457;55.680;37.656;2023-03-14T06:56:43;99161.03;;;1.65;82.94
42811;BME280;28457;55.680;37.656;2023-03-14T06:59:12;99157.94;;;1.70;82.98
42811;BME280;28457;55.680;37.656;2023-03-14T07:01:42;99143.53;;;1.73;81.71
42811;BME280;28457;55.680;37.656;2023-03-14T07:04:11;99157.16;;;1.78;81.76
42811;BME280;28457;55.680;37.656;2023-03-14T07:06:43;99150.06;;;1.78;79.91
42811;BME280;28457;55.680;37.656;2023-03-14T07:09:13;99174.31;;;1.83;80.93
42811;BME280;28457;55.680;37.656;2023-03-14T07:11:50;99155.97;;;1.90;81.56
42811;BME280;28457;55.680;37.656;2023-03-14T07:14:19;99172.94;;;1.97;82.67
42811;BME280;28457;55.680;37.656;2023-03-14T07:16:50;99169.16;;;2.00;79.33
42811;BME280;28457;55.680;37.656;2023-03-14T07:19:18;99148.28;;;2.05;78.55
42811;BME280;28457;55.680;37.656;2023-03-14T07:21:46;99164.91;;;2.07;77.78
42811;BME280;28457;55.680;37.656;2023-03-14T07:24:19;99177.25;;;2.16;78.12
42811;BME280;28457;55.680;37.656;2023-03-14T07:26:48;99187.72;;;2.18;77.00
42811;BME280;28457;55.680;37.656;2023-03-14T07:29:16;99188.25;;;2.21;77.13
42811;BME280;28457;55.680;37.656;2023-03-14T07:31:44;99185.13;;;2.26;76.63
42811;BME280;28457;55.680;37.656;2023-03-14T07:34:18;99185.47;;;2.31;76.13
42811;BME280;28457;55.680;37.656;2023-03-14T07:36:48;99173.72;;;2.33;76.05
42811;BME280;28457;55.680;37.656;2023-03-14T07:39:16;99191.53;;;2.41;76.31
42811;BME280;28457;55.680;37.656;2023-03-14T07:41:52;99189.41;;;2.45;74.66
42811;BME280;28457;55.680;37.656;2023-03-14T07:44:20;99187.25;;;2.48;74.39
42811;BME280;28457;55.680;37.656;2023-03-14T07:46:48;99198.94;;;2.55;74.10
42811;BME280;28457;55.680;37.656;2023-03-14T07:49:18;99195.66;;;2.61;74.13
42811;BME280;28457;55.680;37.656;2023-03-14T07:51:47;99192.69;;;2.64;73.26
42811;BME280;28457;55.680;37.656;2023-03-14T07:54:15;99194.22;;;2.67;72.91
42811;BME280;28457;55.680;37.656;2023-03-14T07:56:45;99186.59;;;2.72;73.14
42811;BME280;28457;55.680;37.656;2023-03-14T07:59:13;99182.63;;;2.76;72.29
42811;BME280;28457;55.680;37.656;2023-03-14T08:01:42;99180.66;;;2.78;71.82
42811;BME280;28457;55.680;37.656;2023-03-14T08:04:10;99186.63;;;2.80;71.84
42811;BME280;28457;55.680;37.656;2023-03-14T08:06:39;99180.84;;;2.85;71.72
42811;BME280;28457;55.680;37.656;2023-03-14T08:09:07;99181.88;;;2.92;71.82
42811;BME280;28457;55.680;37.656;2023-03-14T08:11:35;99200.66;;;2.99;72.55
42811;BME280;28457;55.680;37.656;2023-03-14T08:14:04;99210.03;;;3.03;72.57
42811;BME280;28457;55.680;37.656;2023-03-14T08:16:32;99207.19;;;3.04;72.32
42811;BME280;28457;55.680;37.656;2023-03-14T08:19:00;99217.16;;;3.02;72.43
42811;BME280;28457;55.680;37.656;2023-03-14T08:21:28;99209.53;;;3.07;73.21
42811;BME280;28457;55.680;37.656;2023-03-14T08:23:57;99209.22;;;3.10;73.52
42811;BME280;28457;55.680;37.656;2023-03-14T08:26:25;99201.25;;;3.10;73.88
42811;BME280;28457;55.680;37.656;2023-03-14T08:28:53;99210.19;;;3.09;73.92
42811;BME280;28457;55.680;37.656;2023-03-14T08:31:21;99221.69;;;3.10;74.19
42811;BME280;28457;55.680;37.656;2023-03-14T08:33:50;99205.75;;;3.10;74.20
42811;BME280;28457;55.680;37.656;2023-03-14T08:36:19;99196.75;;;3.11;72.94
42811;BME280;28457;55.680;37.656;2023-03-14T08:38:49;99175.81;;;3.16;72.43
42811;BME280;28457;55.680;37.656;2023-03-14T08:41:19;99189.09;;;3.16;71.54
42811;BME280;28457;55.680;37.656;2023-03-14T08:43:48;99188.47;;;3.22;70.68
42811;BME280;28457;55.680;37.656;2023-03-14T08:46:16;99206.63;;;3.27;70.75
42811;BME280;28457;55.680;37.656;2023-03-14T08:48:44;99204.97;;;3.34;70.69
42811;BME280;28457;55.680;37.656;2023-03-14T08:51:12;99194.84;;;3.38;70.04
42811;BME280;28457;55.680;37.656;2023-03-14T08:53:41;99203.50;;;3.40;69.45
42811;BME280;28457;55.680;37.656;2023-03-14T08:56:10;99203.03;;;3.44;69.59
42811;BME280;28457;55.680;37.656;2023-03-14T08:58:39;99196.88;;;3.52;69.45
42811;BME280;28457;55.680;37.656;2023-03-14T09:01:08;99193.75;;;3.56;68.85
42811;BME280;28457;55.680;37.656;2023-03-14T09:03:37;99196.75;;;3.62;68.21
42811;BME280;28457;55.680;37.656;2023-03-14T09:06:07;99198.91;;;3.66;67.81
42811;BME280;28457;55.680;37.656;2023-03-14T09:08:35;99196.59;;;3.71;67.39
42811;BME280;28457;55.680;37.656;2023-03-14T09:11:06;99176.81;;;3.74;67.36
42811;BME280;28457;55.680;37.656;2023-03-14T09:13:35;99183.63;;;3.76;66.55
42811;BME280;28457;55.680;37.656;2023-03-14T09:16:07;99165.47;;;3.80;66.45
42811;BME280;28457;55.680;37.656;2023-03-14T09:18:36;99174.47;;;3.87;66.50
42811;BME280;28457;55.680;37.656;2023-03-14T09:21:04;99171.47;;;3.90;66.01
42811;BME280;28457;55.680;37.656;2023-03-14T09:23:32;99186.81;;;3.96;65.68
42811;BME280;28457;55.680;37.656;2023-03-14T09:26:00;99184.47;;;4.01;65.55
42811;BME280;28457;55.680;37.656;2023-03-14T09:28:28;99203.63;;;4.05;64.87
42811;BME280;28457;55.680;37.656;2023-03-14T09:30:57;99198.78;;;4.08;64.82
42811;BME280;28457;55.680;37.656;2023-03-14T09:33:26;99185.16;;;4.12;64.14
42811;BME280;28457;55.680;37.656;2023-03-14T09:35:57;99196.16;;;4.17;64.46
42811;BME280;28457;55.680;37.656;2023-03-14T09:38:26;99195.66;;;4.21;64.20
42811;BME280;28457;55.680;37.656;2023-03-14T09:40:54;99199.13;;;4.22;64.23
42811;BME280;28457;55.680;37.656;2023-03-14T09:43:25;99191.97;;;4.22;64.77
42811;BME280;28457;55.680;37.656;2023-03-14T09:45:54;99189.16;;;4.24;64.70
42811;BME280;28457;55.680;37.656;2023-03-14T09:48:24;99188.97;;;4.25;64.77
42811;BME280;28457;55.680;37.656;2023-03-14T09:50:56;99186.16;;;4.27;64.36
42811;BME280;28457;55.680;37.656;2023-03-14T09:53:26;99191.63;;;4.33;64.33
42811;BME280;28457;55.680;37.656;2023-03-14T09:55:55;99184.63;;;4.32;63.73
42811;BME280;28457;55.680;37.656;2023-03-14T09:58:25;99177.00;;;4.38;63.94
42811;BME280;28457;55.680;37.656;2023-03-14T10:00:54;99172.00;;;4.35;63.02
42811;BME280;28457;55.680;37.656;2023-03-14T10:03:27;99199.78;;;4.40;62.64
42811;BME280;28457;55.680;37.656;2023-03-14T10:05:58;99181.28;;;4.47;62.67
42811;BME280;28457;55.680;37.656;2023-03-14T10:08:26;99196.44;;;4.54;62.19
42811;BME280;28457;55.680;37.656;2023-03-14T10:10:54;99194.25;;;4.58;62.06
42811;BME280;28457;55.680;37.656;2023-03-14T10:13:23;99201.59;;;4.64;62.01
42811;BME280;28457;55.680;37.656;2023-03-14T10:15:53;99195.94;;;4.67;61.76
42811;BME280;28457;55.680;37.656;2023-03-14T10:18:22;99168.72;;;4.72;61.56
42811;BME280;28457;55.680;37.656;2023-03-14T10:21:03;99174.22;;;4.78;61.72
42811;BME280;28457;55.680;37.656;2023-03-14T10:23:32;99160.34;;;4.83;61.77
42811;BME280;28457;55.680;37.656;2023-03-14T10:26:03;99159.00;;;4.87;61.01
42811;BME280;28457;55.680;37.656;2023-03-14T10:28:33;99149.84;;;4.90;61.00
42811;BME280;28457;55.680;37.656;2023-03-14T10:31:02;99138.63;;;4.94;60.68
42811;BME280;28457;55.680;37.656;2023-03-14T10:33:31;99124.66;;;4.92;61.31
42811;BME280;28457;55.680;37.656;2023-03-14T10:36:00;99177.84;;;4.94;62.02
42811;BME280;28457;55.680;37.656;2023-03-14T10:38:31;99169.16;;;5.00;61.78
42811;BME280;28457;55.680;37.656;2023-03-14T10:41:00;99158.28;;;5.01;61.57
42811;BME280;28457;55.680;37.656;2023-03-14T10:43:30;99155.28;;;5.04;61.39
42811;BME280;28457;55.680;37.656;2023-03-14T10:46:00;99151.75;;;5.12;61.07
42811;BME280;28457;55.680;37.656;2023-03-14T10:48:30;99143.91;;;5.11;61.04
42811;BME280;28457;55.680;37.656;2023-03-14T10:51:02;99155.25;;;5.13;61.70
42811;BME280;28457;55.680;37.656;2023-03-14T10:53:36;99141.38;;;5.17;61.98
42811;BME280;28457;55.680;37.656;2023-03-14T10:56:06;99134.69;;;5.21;60.98
42811;BME280;28457;55.680;37.656;2023-03-14T10:58:36;99132.69;;;5.23;61.64
42811;BME280;28457;55.680;37.656;2023-03-14T11:01:11;99140.16;;;5.28;61.32
42811;BME280;28457;55.680;37.656;2023-03-14T11:03:42;99136.81;;;5.34;60.90
42811;BME280;28457;55.680;37.656;2023-03-14T11:06:12;99131.75;;;5.39;60.55
42811;BME280;28457;55.680;37.656;2023-03-14T11:08:45;99129.41;;;5.44;60.67
42811;BME280;28457;55.680;37.656;2023-03-14T11:11:17;99136.19;;;5.55;60.09
42811;BME280;28457;55.680;37.656;2023-03-14T11:13:52;99125.44;;;5.63;58.84
42811;BME280;28457;55.680;37.656;2023-03-14T11:16:22;99124.00;;;5.75;59.22
42811;BME280;28457;55.680;37.656;2023-03-14T11:21:41;99119.38;;;5.92;57.20
42811;BME280;28457;55.680;37.656;2023-03-14T11:24:21;99119.31;;;6.00;57.27
42811;BME280;28457;55.680;37.656;2023-03-14T11:26:54;99135.31;;;6.09;57.19
42811;BME280;28457;55.680;37.656;2023-03-14T11:29:25;99128.00;;;6.03;56.42
42811;BME280;28457;55.680;37.656;2023-03-14T11:31:57;99137.88;;;6.02;56.75
42811;BME280;28457;55.680;37.656;2023-03-14T11:34:27;99151.03;;;6.04;56.31
42811;BME280;28457;55.680;37.656;2023-03-14T11:36:58;99136.47;;;6.06;56.23
42811;BME280;28457;55.680;37.656;2023-03-14T11:39:31;99137.97;;;6.09;55.84
42811;BME280;28457;55.680;37.656;2023-03-14T11:42:04;99148.38;;;6.04;55.87
42811;BME280;28457;55.680;37.656;2023-03-14T11:44:32;99141.47;;;6.09;56.01
42811;BME280;28457;55.680;37.656;2023-03-14T11:47:02;99132.63;;;6.09;55.29
42811;BME280;28457;55.680;37.656;2023-03-14T11:49:34;99142.09;;;6.11;54.78
42811;BME280;28457;55.680;37.656;2023-03-14T11:52:06;99139.91;;;6.15;54.72
42811;BME280;28457;55.680;37.656;2023-03-14T11:54:39;99149.78;;;6.14;55.05
42811;BME280;28457;55.680;37.656;2023-03-14T11:57:12;99149.41;;;6.17;54.71
42811;BME280;28457;55.680;37.656;2023-03-14T11:59:45;99145.72;;;6.18;54.80
42811;BME280;28457;55.680;37.656;2023-03-14T12:02:17;99158.94;;;6.20;54.69
42811;BME280;28457;55.680;37.656;2023-03-14T12:04:52;99158.38;;;6.24;54.59
42811;BME280;28457;55.680;37.656;2023-03-14T12:07:38;99159.03;;;6.27;53.86
42811;BME280;28457;55.680;37.656;2023-03-14T12:10:10;99156.00;;;6.30;53.84
42811;BME280;28457;55.680;37.656;2023-03-14T12:12:38;99159.97;;;6.34;53.59
42811;BME280;28457;55.680;37.656;2023-03-14T12:15:15;99162.31;;;6.37;53.51
42811;BME280;28457;55.680;37.656;2023-03-14T12:17:46;99180.16;;;6.36;53.44
42811;BME280;28457;55.680;37.656;2023-03-14T12:20:17;99168.28;;;6.39;53.50
42811;BME280;28457;55.680;37.656;2023-03-14T12:22:46;99152.91;;;6.41;53.27
42811;BME280;28457;55.680;37.656;2023-03-14T12:25:17;99161.75;;;6.41;52.71
42811;BME280;28457;55.680;37.656;2023-03-14T12:27:48;99149.91;;;6.36;53.19
42811;BME280;28457;55.680;37.656;2023-03-14T12:30:21;99194.19;;;6.38;52.53
42811;BME280;28457;55.680;37.656;2023-03-14T12:35:39;99176.97;;;6.41;52.77
42811;BME280;28457;55.680;37.656;2023-03-14T12:38:09;99167.72;;;6.43;52.49
42811;BME280;28457;55.680;37.656;2023-03-14T12:40:40;99175.94;;;6.42;52.90
42811;BME280;28457;55.680;37.656;2023-03-14T12:43:23;99189.97;;;6.44;52.62
42811;BME280;28457;55.680;37.656;2023-03-14T12:46:06;99184.78;;;6.42;52.71
42811;BME280;28457;55.680;37.656;2023-03-14T12:48:35;99186.66;;;6.42;52.66
42811;BME280;28457;55.680;37.656;2023-03-14T12:51:11;99167.44;;;6.38;52.79
42811;BME280;28457;55.680;37.656;2023-03-14T12:53:51;99216.44;;;6.39;52.83
42811;BME280;28457;55.680;37.656;2023-03-14T12:56:25;99186.28;;;6.45;53.43
42811;BME280;28457;55.680;37.656;2023-03-14T12:59:01;99190.34;;;6.41;54.72
42811;BME280;28457;55.680;37.656;2023-03-14T13:01:33;99176.50;;;6.37;56.28
42811;BME280;28457;55.680;37.656;2023-03-14T13:04:02;99184.41;;;6.31;56.01
42811;BME280;28457;55.680;37.656;2023-03-14T13:06:48;99171.41;;;6.28;56.53
42811;BME280;28457;55.680;37.656;2023-03-14T13:09:36;99171.75;;;6.24;56.49
42811;BME280;28457;55.680;37.656;2023-03-14T13:12:19;99179.50;;;6.19;56.74
42811;BME280;28457;55.680;37.656;2023-03-14T13:14:51;99163.63;;;6.18;56.20
42811;BME280;28457;55.680;37.656;2023-03-14T13:17:22;99161.13;;;6.16;55.41
42811;BME280;28457;55.680;37.656;2023-03-14T13:20:02;99156.63;;;6.17;54.73
42811;BME280;28457;55.680;37.656;2023-03-14T13:22:33;99162.78;;;6.17;55.14
42811;BME280;28457;55.680;37.656;2023-03-14T13:25:04;99164.78;;;6.15;54.83
42811;BME280;28457;55.680;37.656;2023-03-14T13:27:34;99171.00;;;6.16;54.39
42811;BME280;28457;55.680;37.656;2023-03-14T13:30:13;99159.66;;;6.14;54.42